createdAt,value
2017-09-16T00:01:34.875Z,100485.29
2017-09-16T00:04:02.842Z,100476.66
2017-09-16T00:06:30.775Z,100481.42
2017-09-16T00:08:58.690Z,100485.80
2017-09-16T00:11:26.997Z,100485.39
2017-09-16T00:13:55.016Z,100483.06
2017-09-16T00:16:22.975Z,100479.56
2017-09-16T00:18:50.877Z,100479.98
2017-09-16T00:21:19.356Z,100473.02
2017-09-16T00:23:48.629Z,100478.13
2017-09-16T00:26:16.539Z,100465.96
2017-09-16T00:28:44.487Z,100468.11
2017-09-16T00:31:12.393Z,100469.45
2017-09-16T00:33:40.286Z,100466.33
2017-09-16T00:36:08.264Z,100465.48
2017-09-16T00:38:36.227Z,100477.21
2017-09-16T00:41:04.132Z,100466.40
2017-09-16T00:43:32.475Z,100469.06
2017-09-16T00:46:00.447Z,100466.84
2017-09-16T00:48:28.349Z,100467.56
2017-09-16T00:50:56.683Z,100466.15
2017-09-16T00:53:24.662Z,100468.30
2017-09-16T00:55:52.572Z,100459.11
2017-09-16T00:58:20.504Z,100462.16
2017-09-16T01:00:48.411Z,100465.19
2017-09-16T01:03:16.438Z,100459.00
2017-09-16T01:05:44.371Z,100461.16
2017-09-16T01:08:12.402Z,100453.30
2017-09-16T01:10:40.752Z,100455.13
2017-09-16T01:13:08.723Z,100455.13
2017-09-16T01:15:36.628Z,100458.61
2017-09-16T01:18:04.616Z,100452.86
2017-09-16T01:20:32.618Z,100459.86
2017-09-16T01:23:00.553Z,100462.86
2017-09-16T01:25:28.451Z,100459.74
2017-09-16T01:27:56.365Z,100471.42
2017-09-16T01:30:24.656Z,100466.63
2017-09-16T01:32:52.557Z,100461.81
2017-09-16T01:35:20.510Z,100471.72
2017-09-16T01:37:48.420Z,100465.63
2017-09-16T01:40:16.316Z,100466.97
2017-09-16T01:42:44.623Z,100465.98
2017-09-16T01:45:12.528Z,100461.23
2017-09-16T01:47:40.483Z,100466.11
2017-09-16T01:50:08.411Z,100466.88
2017-09-16T01:52:36.329Z,100464.67
2017-09-16T01:55:04.229Z,100466.05
2017-09-16T01:57:32.547Z,100469.05
2017-09-16T02:00:00.455Z,100459.92
2017-09-16T02:02:28.411Z,100458.59
2017-09-16T02:04:56.382Z,100461.66
2017-09-16T02:07:24.289Z,100458.47
2017-09-16T02:09:52.195Z,100460.20
2017-09-16T02:12:20.184Z,100456.23
2017-09-16T02:14:48.149Z,100454.98
2017-09-16T02:17:16.042Z,100455.41
2017-09-16T02:19:44.355Z,100457.14
2017-09-16T02:22:12.351Z,100451.80
2017-09-16T02:24:40.243Z,100457.87
2017-09-16T02:27:08.202Z,100456.59
2017-09-16T02:29:36.120Z,100457.08
2017-09-16T02:32:04.010Z,100460.98
2017-09-16T02:34:31.991Z,100456.12
2017-09-16T02:36:59.889Z,100456.95
2017-09-16T02:39:28.240Z,100453.83
2017-09-16T02:41:56.212Z,100448.62
2017-09-16T02:44:24.283Z,100462.55
2017-09-16T02:46:52.260Z,100455.51
2017-09-16T02:49:20.215Z,100464.70
2017-09-16T02:51:48.149Z,100462.51
2017-09-16T02:54:16.043Z,100459.97
2017-09-16T02:56:44.001Z,100461.60
2017-09-16T02:59:12.003Z,100470.66
2017-09-16T03:01:40.107Z,100462.37
2017-09-16T03:04:08.043Z,100460.63
2017-09-16T03:06:35.995Z,100455.45
2017-09-16T03:09:03.896Z,100462.48
2017-09-16T03:11:32.204Z,100452.52
2017-09-16T03:14:00.112Z,100449.75
2017-09-16T03:16:28.002Z,100449.38
2017-09-16T03:18:55.919Z,100451.55
2017-09-16T03:21:24.022Z,100452.38
2017-09-16T03:23:51.919Z,100454.11
2017-09-16T03:26:20.273Z,100449.75
2017-09-16T03:28:48.235Z,100457.89
2017-09-16T03:31:16.138Z,100461.30
2017-09-16T03:33:44.445Z,100468.04
2017-09-16T03:36:12.335Z,100464.05
2017-09-16T03:38:40.236Z,100455.00
2017-09-16T03:41:08.153Z,100458.95
2017-09-16T03:43:36.116Z,100465.36
2017-09-16T03:46:04.127Z,100460.97
2017-09-16T03:48:32.463Z,100464.36
2017-09-16T03:51:00.359Z,100454.46
2017-09-16T03:53:28.267Z,100454.89
2017-09-16T03:55:56.623Z,100450.95
2017-09-16T03:58:24.534Z,100452.73
2017-09-16T04:00:52.451Z,100452.62
2017-09-16T04:03:20.414Z,100443.09
2017-09-16T04:05:48.374Z,100451.84
2017-09-16T04:08:16.308Z,100451.88
2017-09-16T04:10:44.251Z,100468.75
2017-09-16T04:13:12.538Z,100469.31
2017-09-16T04:15:40.461Z,100469.55
2017-09-16T04:18:08.448Z,100460.85
2017-09-16T04:20:36.374Z,100466.00
2017-09-16T04:23:04.273Z,100465.05
2017-09-16T04:25:32.196Z,100461.48
2017-09-16T04:28:00.411Z,100468.38
2017-09-16T04:30:28.371Z,100465.67
2017-09-16T04:32:56.273Z,100469.13
2017-09-16T04:35:24.639Z,100475.30
2017-09-16T04:37:52.584Z,100474.48
2017-09-16T04:40:20.575Z,100473.05
2017-09-16T04:42:48.481Z,100470.91
2017-09-16T04:45:16.375Z,100476.48
2017-09-16T04:47:44.280Z,100472.22
2017-09-16T04:50:12.179Z,100480.05
2017-09-16T04:52:40.113Z,100479.25
2017-09-16T04:55:08.002Z,100481.02
2017-09-16T04:57:36.330Z,100478.44
2017-09-16T05:00:04.258Z,100472.79
2017-09-16T05:02:32.190Z,100474.14
2017-09-16T05:05:00.084Z,100475.38
2017-09-16T05:07:28.406Z,100466.41
2017-09-16T05:09:56.296Z,100472.58
2017-09-16T05:12:24.183Z,100477.33
2017-09-16T05:14:52.931Z,100477.80
2017-09-16T05:17:20.946Z,100479.30
2017-09-16T05:19:49.234Z,100481.89
2017-09-16T05:22:17.147Z,100478.08
2017-09-16T05:24:45.055Z,100479.19
2017-09-16T05:27:13.410Z,100477.45
2017-09-16T05:29:41.311Z,100482.72
2017-09-16T05:32:09.711Z,100479.47
2017-09-16T05:34:37.636Z,100479.05
2017-09-16T05:37:05.586Z,100482.05
2017-09-16T05:39:33.504Z,100480.70
2017-09-16T05:42:01.493Z,100473.58
2017-09-16T05:44:29.497Z,100473.50
2017-09-16T05:46:57.415Z,100465.66
2017-09-16T05:49:25.456Z,100469.98
2017-09-16T05:51:53.807Z,100470.91
2017-09-16T05:54:21.749Z,100472.30
2017-09-16T05:56:49.749Z,100479.65
2017-09-16T05:59:17.651Z,100473.23
2017-09-16T06:01:45.954Z,100472.86
2017-09-16T06:04:13.860Z,100470.30
2017-09-16T06:06:41.789Z,100467.44
2017-09-16T06:09:09.803Z,100462.89
2017-09-16T06:11:37.726Z,100468.63
2017-09-16T06:14:05.619Z,100472.34
2017-09-16T06:16:33.656Z,100472.23
2017-09-16T06:19:01.675Z,100463.61
2017-09-16T06:21:29.638Z,100465.27
2017-09-16T06:23:57.573Z,100460.66
2017-09-16T06:26:25.580Z,100468.08
2017-09-16T06:28:53.557Z,100465.27
2017-09-16T06:31:21.475Z,100469.12
2017-09-16T06:33:49.386Z,100466.32
2017-09-16T06:36:17.297Z,100471.70
2017-09-16T06:38:45.321Z,100473.98
2017-09-16T06:41:13.240Z,100477.65
2017-09-16T06:43:41.158Z,100475.42
2017-09-16T06:46:09.233Z,100470.52
2017-09-16T06:48:37.152Z,100469.58
2017-09-16T06:51:05.070Z,100477.56
2017-09-16T06:53:33.028Z,100483.66
2017-09-16T06:56:00.987Z,100485.19
2017-09-16T06:58:28.934Z,100490.32
2017-09-16T07:00:56.946Z,100489.27
2017-09-16T07:03:24.868Z,100505.17
2017-09-16T07:05:52.779Z,100501.08
2017-09-16T07:08:20.680Z,100507.96
2017-09-16T07:10:48.620Z,100505.23
2017-09-16T07:13:16.574Z,100521.03
2017-09-16T07:15:44.576Z,100513.91
2017-09-16T07:18:12.873Z,100517.52
2017-09-16T07:20:40.885Z,100513.34
2017-09-16T07:23:08.962Z,100513.20
2017-09-16T07:25:36.885Z,100519.25
2017-09-16T07:28:04.803Z,100512.76
2017-09-16T07:30:32.723Z,100512.92
2017-09-16T07:33:00.632Z,100519.23
2017-09-16T07:35:28.552Z,100508.39
2017-09-16T07:37:56.450Z,100520.64
2017-09-16T07:40:24.384Z,100520.86
2017-09-16T07:42:52.280Z,100518.22
2017-09-16T07:45:20.188Z,100520.98
2017-09-16T07:47:48.099Z,100527.70
2017-09-16T07:50:15.990Z,100523.98
2017-09-16T07:52:43.891Z,100523.36
2017-09-16T07:55:12.210Z,100529.41
2017-09-16T07:57:40.116Z,100533.66
2017-09-16T08:00:08.027Z,100539.39
2017-09-16T08:02:35.936Z,100546.27
2017-09-16T08:05:03.906Z,100542.39
2017-09-16T08:07:31.828Z,100546.29
2017-09-16T08:09:59.739Z,100555.81
2017-09-16T08:12:27.691Z,100558.64
2017-09-16T08:14:55.690Z,100558.83
2017-09-16T08:17:23.590Z,100563.38
2017-09-16T08:19:51.916Z,100565.06
2017-09-16T08:22:20.819Z,100565.27
2017-09-16T08:24:48.727Z,100566.25
2017-09-16T08:27:16.659Z,100568.80
2017-09-16T08:29:44.586Z,100559.20
2017-09-16T08:32:12.604Z,100546.16
2017-09-16T08:34:40.577Z,100541.83
2017-09-16T08:37:08.640Z,100540.59
2017-09-16T08:39:36.560Z,100544.00
2017-09-16T08:42:04.454Z,100546.30
2017-09-16T08:44:32.634Z,100556.93
2017-09-16T08:47:00.611Z,100550.07
2017-09-16T08:49:28.674Z,100545.14
2017-09-16T08:51:57.381Z,100547.23
2017-09-16T08:54:25.356Z,100546.27
2017-09-16T08:56:53.339Z,100544.62
2017-09-16T08:59:21.690Z,100545.47
2017-09-16T09:01:49.663Z,100547.16
2017-09-16T09:04:17.591Z,100537.31
2017-09-16T09:06:45.513Z,100540.49
2017-09-16T09:09:13.411Z,100536.98
2017-09-16T09:11:41.328Z,100535.20
2017-09-16T09:14:09.237Z,100538.72
2017-09-16T09:16:37.571Z,100540.88
2017-09-16T09:19:05.479Z,100544.80
2017-09-16T09:21:33.386Z,100550.05
2017-09-16T09:24:01.311Z,100550.45
2017-09-16T09:26:29.675Z,100553.11
2017-09-16T09:28:58.330Z,100550.59
2017-09-16T09:31:26.347Z,100548.86
2017-09-16T09:33:54.671Z,100543.42
2017-09-16T09:36:22.599Z,100554.63
2017-09-16T09:38:50.514Z,100548.86
2017-09-16T09:41:18.492Z,100549.91
2017-09-16T09:43:46.448Z,100563.74
2017-09-16T09:46:14.355Z,100566.65
2017-09-16T09:48:42.671Z,100563.11
2017-09-16T09:51:10.671Z,100567.10
2017-09-16T09:53:38.583Z,100573.02
2017-09-16T09:56:06.519Z,100564.31
2017-09-16T09:58:34.437Z,100559.63
2017-09-16T10:01:02.360Z,100561.41
2017-09-16T10:03:30.264Z,100561.38
2017-09-16T10:05:59.296Z,100565.05
2017-09-16T10:08:27.256Z,100571.50
2017-09-16T10:10:55.273Z,100562.09
2017-09-16T10:13:23.632Z,100551.63
2017-09-16T10:15:51.591Z,100553.12
2017-09-16T10:18:19.490Z,100545.34
2017-09-16T10:20:47.815Z,100553.61
2017-09-16T10:23:15.729Z,100560.89
2017-09-16T10:25:44.037Z,100548.93
2017-09-16T10:28:12.059Z,100545.67
2017-09-16T10:30:39.958Z,100543.43
2017-09-16T10:33:08.250Z,100544.54
2017-09-16T10:35:36.227Z,100537.93
2017-09-16T10:38:04.244Z,100531.00
2017-09-16T10:40:32.199Z,100532.04
2017-09-16T10:43:00.110Z,100534.17
2017-09-16T10:45:28.037Z,100543.08
2017-09-16T10:47:56.002Z,100540.05
2017-09-16T10:50:23.927Z,100546.22
2017-09-16T10:52:51.841Z,100540.47
2017-09-16T10:55:20.613Z,100550.80
2017-09-16T10:57:48.515Z,100554.48
2017-09-16T11:00:16.901Z,100552.37
2017-09-16T11:02:45.224Z,100541.13
2017-09-16T11:05:13.177Z,100541.08
2017-09-16T11:07:41.155Z,100537.80
2017-09-16T11:10:09.178Z,100539.94
2017-09-16T11:12:37.491Z,100542.74
2017-09-16T11:15:05.408Z,100539.18
2017-09-16T11:17:33.324Z,100538.05
2017-09-16T11:20:01.241Z,100541.92
2017-09-16T11:22:29.220Z,100534.91
2017-09-16T11:24:57.128Z,100536.61
2017-09-16T11:27:25.066Z,100537.00
2017-09-16T11:29:53.381Z,100537.45
2017-09-16T11:32:21.302Z,100544.47
2017-09-16T11:34:49.224Z,100547.54
2017-09-16T11:37:17.268Z,100539.61
2017-09-16T11:39:45.203Z,100533.06
2017-09-16T11:42:13.217Z,100528.58
2017-09-16T11:44:41.158Z,100535.80
2017-09-16T11:47:09.489Z,100534.40
2017-09-16T11:49:37.409Z,100535.92
2017-09-16T11:52:05.703Z,100531.89
2017-09-16T11:54:33.661Z,100536.18
2017-09-16T11:57:01.583Z,100537.68
2017-09-16T11:59:29.519Z,100533.33
2017-09-16T12:01:57.450Z,100530.90
2017-09-16T12:04:25.757Z,100527.67
2017-09-16T12:06:53.675Z,100521.63
2017-09-16T12:09:21.605Z,100519.97
2017-09-16T12:11:49.556Z,100520.04
2017-09-16T12:14:17.488Z,100527.55
2017-09-16T12:16:45.416Z,100520.20
2017-09-16T12:19:13.340Z,100532.27
2017-09-16T12:21:41.653Z,100526.03
2017-09-16T12:24:09.560Z,100523.75
2017-09-16T12:26:37.485Z,100521.38
2017-09-16T12:29:05.392Z,100521.43
2017-09-16T12:31:33.325Z,100516.34
2017-09-16T12:34:01.243Z,100515.28
2017-09-16T12:36:29.178Z,100516.73
2017-09-16T12:38:57.110Z,100516.05
2017-09-16T12:41:25.013Z,100513.50
2017-09-16T12:43:52.919Z,100518.87
2017-09-16T12:46:21.485Z,100527.05
2017-09-16T12:48:49.402Z,100527.75
2017-09-16T12:51:17.422Z,100527.23
2017-09-16T12:53:45.493Z,100531.17
2017-09-16T12:56:13.407Z,100522.81
2017-09-16T12:58:41.363Z,100516.05
2017-09-16T13:01:09.280Z,100522.64
2017-09-16T13:03:37.195Z,100519.28
2017-09-16T13:06:05.504Z,100522.69
2017-09-16T13:08:33.407Z,100520.23
2017-09-16T13:11:01.324Z,100521.78
2017-09-16T13:13:29.234Z,100517.00
2017-09-16T13:15:57.157Z,100521.77
2017-09-16T13:18:25.131Z,100522.78
2017-09-16T13:20:53.094Z,100524.50
2017-09-16T13:23:20.991Z,100522.91
2017-09-16T13:25:48.926Z,100528.92
2017-09-16T13:28:16.865Z,100525.25
2017-09-16T13:30:44.787Z,100523.92
2017-09-16T13:33:12.771Z,100522.99
2017-09-16T13:35:40.683Z,100517.88
2017-09-16T13:38:09.048Z,100519.14
2017-09-16T13:40:36.966Z,100525.76
2017-09-16T13:43:04.925Z,100521.48
2017-09-16T13:45:32.899Z,100523.14
2017-09-16T13:48:00.808Z,100527.20
2017-09-16T13:50:28.754Z,100531.48
2017-09-16T13:52:56.705Z,100520.30
2017-09-16T13:55:24.683Z,100523.30
2017-09-16T13:57:52.588Z,100515.97
2017-09-16T14:00:20.508Z,100518.95
2017-09-16T14:02:48.511Z,100516.84
2017-09-16T14:05:16.449Z,100513.17
2017-09-16T14:07:44.355Z,100519.30
2017-09-16T14:10:12.285Z,100518.41
2017-09-16T14:12:40.205Z,100514.73
2017-09-16T14:15:08.531Z,100518.92
2017-09-16T14:17:36.484Z,100515.35
2017-09-16T14:20:04.426Z,100510.41
2017-09-16T14:22:32.335Z,100513.17
2017-09-16T14:25:00.260Z,100505.48
2017-09-16T14:27:28.592Z,100506.52
2017-09-16T14:29:56.500Z,100513.83
2017-09-16T14:32:24.808Z,100512.06
2017-09-16T14:34:52.711Z,100519.08
2017-09-16T14:39:55.085Z,100519.91
2017-09-16T14:42:23.012Z,100518.73
2017-09-16T14:44:51.318Z,100519.34
2017-09-16T14:47:19.331Z,100514.74
2017-09-16T14:49:47.303Z,100519.95
2017-09-16T14:52:15.228Z,100519.08
2017-09-16T14:54:43.232Z,100512.84
2017-09-16T14:57:11.160Z,100518.97
2017-09-16T14:59:39.191Z,100510.28
2017-09-16T15:02:07.508Z,100507.46
2017-09-16T15:04:35.411Z,100523.19
2017-09-16T15:07:03.343Z,100518.72
2017-09-16T15:09:31.261Z,100518.11
2017-09-16T15:11:59.167Z,100524.30
2017-09-16T15:14:27.149Z,100519.27
2017-09-16T15:16:55.086Z,100522.04
2017-09-16T15:19:23.627Z,100521.03
2017-09-16T15:21:51.554Z,100520.05
2017-09-16T15:24:19.473Z,100519.72
2017-09-16T15:26:47.418Z,100517.07
2017-09-16T15:29:15.500Z,100520.13
2017-09-16T15:31:43.428Z,100516.13
2017-09-16T15:34:11.360Z,100511.00
2017-09-16T15:36:40.160Z,100518.45
2017-09-16T15:39:08.500Z,100514.60
2017-09-16T15:41:36.449Z,100508.29
2017-09-16T15:44:04.454Z,100509.59
2017-09-16T15:46:32.373Z,100513.27
2017-09-16T15:49:00.332Z,100522.74
2017-09-16T15:51:28.243Z,100516.98
2017-09-16T15:53:56.323Z,100524.09
2017-09-16T15:56:24.294Z,100518.86
2017-09-16T15:58:52.263Z,100515.98
2017-09-16T16:01:20.175Z,100517.92
2017-09-16T16:03:48.100Z,100527.55
2017-09-16T16:06:16.067Z,100529.42
2017-09-16T16:08:43.975Z,100533.61
2017-09-16T16:11:11.886Z,100534.47
2017-09-16T16:13:39.838Z,100534.88
2017-09-16T16:16:07.774Z,100533.75
2017-09-16T16:18:36.116Z,100532.91
2017-09-16T16:21:04.027Z,100544.61
2017-09-16T16:23:31.937Z,100546.17
2017-09-16T16:25:59.875Z,100548.36
2017-09-16T16:28:27.791Z,100548.14
2017-09-16T16:30:55.710Z,100547.55
2017-09-16T16:33:23.737Z,100553.70
2017-09-16T16:35:51.648Z,100557.96
2017-09-16T16:38:19.559Z,100556.20
2017-09-16T16:40:47.479Z,100554.11
2017-09-16T16:43:15.380Z,100554.75
2017-09-16T16:45:43.301Z,100547.77
2017-09-16T16:48:11.604Z,100551.66
2017-09-16T16:50:39.535Z,100561.48
2017-09-16T16:53:07.835Z,100569.53
2017-09-16T16:55:35.736Z,100571.66
2017-09-16T16:58:03.675Z,100566.59
2017-09-16T17:00:31.612Z,100560.45
2017-09-16T17:02:59.919Z,100564.72
2017-09-16T17:05:27.827Z,100565.23
2017-09-16T17:07:55.748Z,100565.80
2017-09-16T17:10:23.771Z,100569.08
2017-09-16T17:12:51.702Z,100574.52
2017-09-16T17:15:19.703Z,100569.31
2017-09-16T17:17:47.617Z,100574.62
2017-09-16T17:20:15.540Z,100573.47
2017-09-16T17:22:43.465Z,100576.17
2017-09-16T17:25:11.434Z,100569.35
2017-09-16T17:27:39.380Z,100577.66
2017-09-16T17:30:07.287Z,100584.88
2017-09-16T17:32:35.283Z,100588.10
2017-09-16T17:35:03.267Z,100586.42
2017-09-16T17:37:31.592Z,100597.15
2017-09-16T17:39:59.498Z,100599.83
2017-09-16T17:42:27.461Z,100604.72
2017-09-16T17:44:55.367Z,100610.07
2017-09-16T17:47:23.268Z,100607.91
2017-09-16T17:49:51.184Z,100612.83
2017-09-16T17:52:19.099Z,100610.25
2017-09-16T17:54:47.044Z,100608.50
2017-09-16T17:57:15.348Z,100615.56
2017-09-16T17:59:43.254Z,100617.78
2017-09-16T18:02:11.196Z,100621.30
2017-09-16T18:04:39.188Z,100618.25
2017-09-16T18:07:07.100Z,100628.84
2017-09-16T18:09:35.009Z,100630.19
2017-09-16T18:12:02.920Z,100628.44
2017-09-16T18:14:31.232Z,100625.89
2017-09-16T18:16:59.153Z,100632.92
2017-09-16T18:19:27.464Z,100629.00
2017-09-16T18:21:55.599Z,100632.08
2017-09-16T18:26:57.832Z,100637.82
2017-09-16T18:29:25.745Z,100637.38
2017-09-16T18:31:53.704Z,100638.73
2017-09-16T18:34:21.609Z,100643.11
2017-09-16T18:36:49.920Z,100644.91
2017-09-16T18:39:17.858Z,100650.61
2017-09-16T18:41:45.847Z,100643.18
2017-09-16T18:44:13.764Z,100641.00
2017-09-16T18:46:41.692Z,100640.19
2017-09-16T18:49:09.599Z,100646.77
2017-09-16T18:51:37.548Z,100645.91
2017-09-16T18:54:05.458Z,100645.48
2017-09-16T18:56:33.786Z,100649.02
2017-09-16T18:59:01.772Z,100649.90
2017-09-16T19:01:29.683Z,100652.56
2017-09-16T19:03:57.605Z,100647.31
2017-09-16T19:06:25.548Z,100650.86
2017-09-16T19:08:53.473Z,100654.79
2017-09-16T19:11:21.807Z,100646.05
2017-09-16T19:13:49.791Z,100648.67
2017-09-16T19:16:17.710Z,100648.23
2017-09-16T19:18:45.681Z,100649.13
2017-09-16T19:21:13.584Z,100647.81
2017-09-16T19:23:41.484Z,100660.50
2017-09-16T19:26:09.817Z,100660.06
2017-09-16T19:28:37.750Z,100653.50
2017-09-16T19:31:05.676Z,100658.31
2017-09-16T19:33:33.595Z,100658.75
2017-09-16T19:36:01.515Z,100657.01
2017-09-16T19:38:29.422Z,100660.94
2017-09-16T19:40:57.372Z,100661.38
2017-09-16T19:43:25.292Z,100662.22
2017-09-16T19:45:53.244Z,100660.03
2017-09-16T19:48:21.217Z,100665.28
2017-09-16T19:50:49.133Z,100667.91
2017-09-16T19:53:17.052Z,100667.44
2017-09-16T19:55:45.112Z,100666.12
2017-09-16T19:58:13.532Z,100664.41
2017-09-16T20:00:41.517Z,100667.00
2017-09-16T20:03:09.720Z,100674.44
2017-09-16T20:05:37.699Z,100672.69
2017-09-16T20:08:05.647Z,100675.75
2017-09-16T20:10:33.687Z,100674.41
2017-09-16T20:13:01.594Z,100679.22
2017-09-16T20:15:29.742Z,100677.42
2017-09-16T20:17:57.782Z,100677.42
2017-09-16T20:20:25.875Z,100687.48
2017-09-16T20:22:53.894Z,100689.67
2017-09-16T20:25:21.840Z,100686.59
2017-09-16T20:27:50.191Z,100676.11
2017-09-16T20:30:18.108Z,100682.23
2017-09-16T20:32:46.180Z,100680.52
2017-09-16T20:35:14.096Z,100685.78
2017-09-16T20:37:42.000Z,100687.56
2017-09-16T20:40:10.038Z,100687.97
2017-09-16T20:42:38.099Z,100687.13
2017-09-16T20:45:06.171Z,100681.47
2017-09-16T20:47:34.253Z,100686.72
2017-09-16T20:50:02.269Z,100691.11
2017-09-16T20:52:30.238Z,100693.31
2017-09-16T20:54:58.935Z,100689.38
2017-09-16T20:57:26.930Z,100700.30
2017-09-16T20:59:54.857Z,100701.61
2017-09-16T21:02:22.788Z,100700.30
2017-09-16T21:04:50.712Z,100695.05
2017-09-16T21:07:18.636Z,100699.84
2017-09-16T21:09:46.994Z,100690.22
2017-09-16T21:12:14.909Z,100698.52
2017-09-16T21:14:42.812Z,100694.55
2017-09-16T21:17:10.785Z,100686.25
2017-09-16T21:19:38.682Z,100691.06
2017-09-16T21:22:06.999Z,100690.17
2017-09-16T21:24:35.117Z,100699.34
2017-09-16T21:27:03.435Z,100697.16
2017-09-16T21:29:31.419Z,100697.14
2017-09-16T21:31:59.333Z,100697.16
2017-09-16T21:34:27.251Z,100698.88
2017-09-16T21:36:55.889Z,100701.05
2017-09-16T21:39:24.208Z,100703.20
2017-09-16T21:41:52.129Z,100697.94
2017-09-16T21:44:20.091Z,100697.97
2017-09-16T21:46:48.004Z,100697.96
2017-09-16T21:49:15.938Z,100708.00
2017-09-16T21:51:43.844Z,100697.92
2017-09-16T21:54:11.747Z,100692.23
2017-09-16T21:56:39.655Z,100703.17
2017-09-16T21:59:07.969Z,100705.36
2017-09-16T22:01:35.964Z,100709.23
2017-09-16T22:04:03.903Z,100710.98
2017-09-16T22:06:31.804Z,100715.78
2017-09-16T22:08:59.728Z,100714.00
2017-09-16T22:11:27.636Z,100714.41
2017-09-16T22:13:56.258Z,100717.88
2017-09-16T22:16:24.569Z,100717.93
2017-09-16T22:18:52.472Z,100713.91
2017-09-16T22:21:20.391Z,100709.55
2017-09-16T22:23:48.415Z,100712.18
2017-09-16T22:26:16.330Z,100713.06
2017-09-16T22:28:44.362Z,100709.11
2017-09-16T22:31:12.259Z,100713.92
2017-09-16T22:33:40.156Z,100715.68
2017-09-16T22:36:08.246Z,100721.34
2017-09-16T22:38:36.174Z,100716.98
2017-09-16T22:41:04.075Z,100724.31
2017-09-16T22:43:32.048Z,100727.69
2017-09-16T22:45:59.980Z,100729.91
2017-09-16T22:48:28.012Z,100731.23
2017-09-16T22:50:55.925Z,100732.89
2017-09-16T22:53:23.855Z,100732.47
2017-09-16T22:55:52.175Z,100739.03
2017-09-16T22:58:20.171Z,100740.33
2017-09-16T23:00:48.102Z,100734.67
2017-09-16T23:03:16.107Z,100740.73
2017-09-16T23:05:44.080Z,100735.56
2017-09-16T23:08:12.064Z,100735.08
2017-09-16T23:10:40.024Z,100738.12
2017-09-16T23:13:07.936Z,100745.95
2017-09-16T23:15:35.848Z,100748.16
2017-09-16T23:18:03.768Z,100750.70
2017-09-16T23:20:31.806Z,100750.27
2017-09-16T23:22:59.723Z,100742.85
2017-09-16T23:25:27.689Z,100739.44
2017-09-16T23:27:55.699Z,100742.03
2017-09-16T23:30:23.635Z,100734.98
2017-09-16T23:32:51.533Z,100731.94
2017-09-16T23:35:19.534Z,100735.03
2017-09-16T23:37:47.924Z,100736.31
2017-09-16T23:40:15.869Z,100737.47
2017-09-16T23:42:44.195Z,100742.25
2017-09-16T23:45:12.113Z,100726.52
2017-09-16T23:47:40.046Z,100727.42
2017-09-16T23:50:07.970Z,100728.33
2017-09-16T23:52:35.875Z,100731.36
2017-09-16T23:55:03.795Z,100726.02
2017-09-16T23:57:32.444Z,100722.54
